Time;durP1;ratioP1;P1;durP2;ratioP2;P2;SDS_P1;SDS_P2;PMS_P1;PMS_P2;Temp;Humidity;BMP_temperature;BMP_pressure;BME280_temperature;BME280_humidity;BME280_pressure;Samples;Min_cycle;Max_cycle;Signal;HPM_P1;HPM_P2
2020/12/28 00:00:41;;;;;;;17.63;10.10;;;;;;;0.06;67.84;98527.27;118336;1147;104633;-70
2020/12/28 00:03:09;;;;;;;16.15;8.90;;;;;;;0.05;67.85;98530.00;118865;1147;104569;-68
2020/12/28 00:05:37;;;;;;;17.87;9.23;;;;;;;0.06;67.81;98519.39;118396;1148;104479;-70
2020/12/28 00:08:06;;;;;;;15.20;8.90;;;;;;;0.07;68.16;98509.73;118822;1147;104500;-69
2020/12/28 00:10:34;;;;;;;18.45;9.00;;;;;;;0.06;68.00;98510.67;118395;1147;104592;-68
2020/12/28 00:13:02;;;;;;;19.60;8.83;;;;;;;0.04;68.33;98505.58;118831;1147;104549;-69
2020/12/28 00:15:31;;;;;;;15.53;8.50;;;;;;;0.05;68.17;98506.41;118393;1148;104560;-68
2020/12/28 00:18:01;;;;;;;17.63;8.93;;;;;;;0.06;68.40;98492.31;118369;1148;104592;-69
2020/12/28 00:20:31;;;;;;;14.97;8.33;;;;;;;0.05;68.37;98490.67;118434;1148;104617;-68
2020/12/28 00:22:59;;;;;;;18.80;9.53;;;;;;;0.04;68.29;98486.38;118424;1148;104534;-69
2020/12/28 00:25:28;;;;;;;17.23;9.03;;;;;;;0.06;69.05;98489.70;118413;1148;104593;-68
2020/12/28 00:27:57;;;;;;;16.87;9.43;;;;;;;0.08;67.90;98485.14;118416;1148;104479;-70
2020/12/28 00:30:25;;;;;;;19.27;9.87;;;;;;;0.08;68.18;98475.52;118426;1148;104525;-69
2020/12/28 00:32:53;;;;;;;19.20;10.87;;;;;;;0.09;68.44;98468.47;118356;1148;104553;-69
2020/12/28 00:35:21;;;;;;;20.73;10.80;;;;;;;0.10;68.27;98472.77;118748;1147;104553;-69
2020/12/28 00:37:49;;;;;;;19.97;10.93;;;;;;;0.10;68.74;98468.34;118340;1148;104822;-68
2020/12/28 00:40:18;;;;;;;21.00;12.50;;;;;;;0.11;68.46;98469.16;118897;1147;104567;-67
2020/12/28 00:42:46;;;;;;;21.97;11.63;;;;;;;0.11;69.14;98462.12;118389;1148;104510;-67
2020/12/28 00:45:14;;;;;;;17.65;10.95;;;;;;;0.12;68.90;98460.35;118341;1148;104551;-68
2020/12/28 00:47:42;;;;;;;18.73;9.80;;;;;;;0.12;68.63;98461.17;118410;1147;104492;-69
2020/12/28 00:50:11;;;;;;;15.63;9.17;;;;;;;0.16;68.81;98459.13;118835;1147;104636;-69
2020/12/28 00:52:39;;;;;;;16.60;9.73;;;;;;;0.16;68.86;98456.50;118417;1148;104997;-69
2020/12/28 00:55:07;;;;;;;18.95;10.40;;;;;;;0.16;68.71;98440.77;118919;1147;104456;-70
2020/12/28 00:57:37;;;;;;;15.20;9.30;;;;;;;0.18;69.10;98444.08;118442;1147;104483;-70
2020/12/28 01:00:06;;;;;;;17.67;10.10;;;;;;;0.18;68.99;98444.91;118884;1147;104729;-69
2020/12/28 01:02:51;;;;;;;17.13;9.90;;;;;;;0.21;68.85;98443.80;118843;1148;104450;-71
2020/12/28 01:05:25;;;;;;;16.67;9.60;;;;;;;0.21;68.91;98435.94;118370;1148;104540;-70
2020/12/28 01:07:53;;;;;;;16.65;9.55;;;;;;;0.23;68.82;98434.00;118795;1147;104453;-69
2020/12/28 01:10:31;;;;;;;16.33;9.27;;;;;;;0.28;68.92;98431.00;118232;1148;104524;-71
2020/12/28 01:13:03;;;;;;;16.65;8.93;;;;;;;0.29;68.77;98412.52;117962;1148;104956;-70
2020/12/28 01:15:31;;;;;;;20.17;10.93;;;;;;;0.32;69.19;98409.61;118125;1148;105290;-70
2020/12/28 01:18:01;;;;;;;17.53;9.37;;;;;;;0.36;69.02;98405.75;118480;1147;104541;-70
2020/12/28 01:20:42;;;;;;;15.65;8.30;;;;;;;0.42;69.13;98398.31;118317;1148;104537;-70
2020/12/28 01:23:13;;;;;;;17.90;9.37;;;;;;;0.45;69.26;98392.81;118345;1148;104508;-69
2020/12/28 01:26:01;;;;;;;15.13;7.67;;;;;;;0.50;69.27;98375.70;118789;1147;104592;-68
2020/12/28 01:28:33;;;;;;;16.27;9.03;;;;;;;0.55;69.36;98375.28;118415;1148;104925;-69
2020/12/28 01:31:02;;;;;;;23.57;11.90;;;;;;;0.58;69.43;98373.22;118419;1148;104617;-68
2020/12/28 01:33:49;;;;;;;25.97;13.50;;;;;;;0.59;69.35;98366.98;118752;1147;104536;-68
2020/12/28 01:36:19;;;;;;;23.57;13.63;;;;;;;0.59;69.21;98359.11;118179;1148;104478;-68
2020/12/28 01:38:47;;;;;;;30.43;15.20;;;;;;;0.64;68.92;98360.52;118358;1148;104532;-68
2020/12/28 01:41:16;;;;;;;24.43;12.93;;;;;;;0.66;69.46;98351.54;118390;1147;104561;-68
2020/12/28 01:43:47;;;;;;;35.10;19.00;;;;;;;0.65;69.12;98341.99;118460;1145;104474;-69
2020/12/28 01:46:19;;;;;;;32.33;16.70;;;;;;;0.68;69.30;98344.36;118274;1148;104506;-69
2020/12/28 01:48:47;;;;;;;32.37;16.57;;;;;;;0.71;69.16;98341.47;118343;1147;104466;-69
2020/12/28 01:51:20;;;;;;;35.20;17.95;;;;;;;0.73;69.76;98334.28;118264;1147;104604;-70
2020/12/28 01:53:48;;;;;;;93.73;42.50;;;;;;;0.73;68.95;98339.53;118424;1148;104500;-68
2020/12/28 01:56:30;;;;;;;44.33;22.47;;;;;;;0.77;68.97;98335.66;118450;1147;104449;-69
2020/12/28 01:58:58;;;;;;;35.70;17.20;;;;;;;0.81;69.77;98332.73;118571;1147;104485;-69
2020/12/28 02:01:35;;;;;;;27.47;15.07;;;;;;;0.83;69.86;98317.67;118397;1147;104697;-69
2020/12/28 02:04:04;;;;;;;20.30;10.90;;;;;;;0.82;69.52;98316.86;118763;1148;104636;-69
2020/12/28 02:06:38;;;;;;;17.77;9.73;;;;;;;0.84;69.50;98309.66;118386;1148;104985;-69
2020/12/28 02:09:07;;;;;;;19.65;10.80;;;;;;;0.82;69.35;98316.86;118446;1148;104669;-69
2020/12/28 02:11:36;;;;;;;15.57;8.63;;;;;;;0.82;69.50;98311.60;118898;1147;104623;-70
2020/12/28 02:14:05;;;;;;;15.77;8.80;;;;;;;0.84;69.22;98303.59;118377;1148;104536;-69
2020/12/28 02:16:48;;;;;;;16.07;8.20;;;;;;;0.84;69.80;98314.09;118913;1148;104476;-70
2020/12/28 02:19:20;;;;;;;14.43;8.20;;;;;;;0.85;69.54;98305.23;118354;1148;104557;-69
2020/12/28 02:21:51;;;;;;;12.90;7.80;;;;;;;0.87;69.46;98305.95;118392;1148;104566;-69
2020/12/28 02:24:25;;;;;;;13.67;8.43;;;;;;;0.90;69.57;98313.53;118407;1147;104454;-69
2020/12/28 02:26:53;;;;;;;15.43;8.40;;;;;;;0.91;69.92;98307.33;118380;1148;105235;-68
2020/12/28 02:29:22;;;;;;;13.53;7.27;;;;;;;0.95;70.45;98306.08;118371;1148;104497;-69
2020/12/28 02:31:50;;;;;;;14.70;8.13;;;;;;;0.96;69.92;98302.46;118465;1148;104613;-70
2020/12/28 02:34:38;;;;;;;13.47;7.57;;;;;;;0.98;69.54;98290.88;118367;1148;104585;-70
2020/12/28 02:37:11;;;;;;;13.03;7.87;;;;;;;1.02;69.71;98286.17;118382;1148;104467;-71
2020/12/28 02:39:57;;;;;;;12.90;7.30;;;;;;;1.05;70.08;98291.13;118399;1147;104543;-70
2020/12/28 02:42:25;;;;;;;14.93;8.37;;;;;;;1.07;69.46;98283.93;118450;1147;104652;-71
2020/12/28 02:45:12;;;;;;;12.37;7.40;;;;;;;1.13;69.76;98278.10;118379;1148;104661;-70
2020/12/28 02:47:59;;;;;;;12.60;7.83;;;;;;;1.16;70.28;98269.13;118378;1148;104503;-69
2020/12/28 02:50:46;;;;;;;14.43;8.03;;;;;;;1.14;70.17;98264.02;118372;1148;104504;-69
2020/12/28 02:53:33;;;;;;;13.13;7.50;;;;;;;1.16;70.10;98248.12;118407;1147;104506;-69
2020/12/28 02:56:20;;;;;;;13.43;7.47;;;;;;;1.19;69.53;98250.44;118398;1148;104559;-69
2020/12/28 02:59:07;;;;;;;14.50;8.13;;;;;;;1.21;69.82;98242.42;118327;1148;104554;-69
2020/12/28 03:01:54;;;;;;;12.37;7.37;;;;;;;1.22;69.77;98239.66;118331;1148;104591;-69
2020/12/28 03:04:41;;;;;;;12.53;7.30;;;;;;;1.22;70.01;98229.16;118420;1148;104595;-69
2020/12/28 03:07:28;;;;;;;13.47;7.90;;;;;;;1.24;70.63;98234.27;118394;1148;104515;-69
2020/12/28 03:10:15;;;;;;;13.20;8.03;;;;;;;1.23;69.80;98232.59;118095;1148;104605;-69
2020/12/28 03:13:02;;;;;;;12.60;6.77;;;;;;;1.25;71.08;98222.77;117938;1148;104496;-69
2020/12/28 03:15:49;;;;;;;14.03;8.07;;;;;;;1.24;70.47;98221.13;118267;1146;104626;-69
2020/12/28 03:18:36;;;;;;;13.87;8.10;;;;;;;1.26;69.73;98219.19;118375;1148;104572;-68
2020/12/28 03:21:23;;;;;;;13.77;7.60;;;;;;;1.28;70.37;98206.73;118320;1147;104546;-69
2020/12/28 03:24:10;;;;;;;13.23;8.20;;;;;;;1.29;70.14;98197.86;117933;1148;104478;-70
2020/12/28 03:27:02;;;;;;;14.10;8.47;;;;;;;1.29;70.26;98197.86;118286;1148;104623;-69
2020/12/28 03:29:49;;;;;;;19.10;9.63;;;;;;;1.30;70.97;98194.27;118386;1148;104599;-70
2020/12/28 03:32:36;;;;;;;15.50;8.70;;;;;;;1.32;70.99;98203.66;118381;1147;104555;-70
2020/12/28 03:35:23;;;;;;;18.93;10.20;;;;;;;1.33;71.02;98194.00;118388;1148;104461;-69
2020/12/28 03:38:10;;;;;;;18.17;11.37;;;;;;;1.35;70.08;98186.80;118855;1148;104624;-70
2020/12/28 03:40:57;;;;;;;16.95;9.70;;;;;;;1.32;71.01;98187.89;118352;1148;104517;-69
2020/12/28 03:44:04;;;;;;;17.53;10.43;;;;;;;1.34;70.91;98177.25;117866;1151;104678;-70
2020/12/28 03:46:51;;;;;;;27.70;17.43;;;;;;;1.36;71.06;98172.67;117834;1149;105148;-69
2020/12/28 03:49:38;;;;;;;20.87;13.70;;;;;;;1.38;70.64;98165.47;118395;1147;104604;-68
2020/12/28 03:52:25;;;;;;;18.17;10.80;;;;;;;1.40;70.81;98174.03;118860;1147;104480;-67
2020/12/28 03:55:19;;;;;;;18.23;10.30;;;;;;;1.43;70.37;98168.49;118583;1147;104874;-69
2020/12/28 03:58:06;;;;;;;13.40;7.57;;;;;;;1.46;71.08;98151.59;118826;1148;104559;-68
2020/12/28 04:00:53;;;;;;;14.73;9.10;;;;;;;1.48;70.65;98154.90;118364;1148;104548;-68
2020/12/28 04:03:40;;;;;;;14.63;8.50;;;;;;;1.51;70.73;98158.06;118858;1147;104479;-69
2020/12/28 04:06:27;;;;;;;15.77;8.87;;;;;;;1.53;71.71;98150.86;118365;1148;104479;-69
2020/12/28 04:09:14;;;;;;;14.93;7.40;;;;;;;1.55;72.47;98141.02;118388;1148;104529;-69
2020/12/28 04:12:01;;;;;;;20.70;9.57;;;;;;;1.56;71.09;98147.95;118403;1148;104539;-70
2020/12/28 04:14:34;;;;;;;14.37;8.10;;;;;;;1.59;70.68;98144.19;118394;1148;104538;-68
2020/12/28 04:17:02;;;;;;;15.37;8.90;;;;;;;1.60;71.25;98145.00;118374;1148;104552;-67
2020/12/28 04:19:30;;;;;;;15.07;8.43;;;;;;;1.63;71.20;98144.72;118203;1148;104479;-69
2020/12/28 04:21:59;;;;;;;14.10;8.07;;;;;;;1.64;70.50;98139.32;118070;1148;104608;-68
2020/12/28 04:24:27;;;;;;;16.17;9.47;;;;;;;1.66;71.16;98131.30;118312;1148;104606;-68
2020/12/28 04:26:55;;;;;;;17.17;10.50;;;;;;;1.68;70.65;98130.16;118257;1147;104501;-70
2020/12/28 04:29:23;;;;;;;16.05;8.70;;;;;;;1.69;70.54;98147.56;118635;1148;104549;-68
2020/12/28 04:31:51;;;;;;;13.53;8.27;;;;;;;1.72;72.15;98141.20;118480;1148;104887;-69
2020/12/28 04:34:19;;;;;;;13.30;7.47;;;;;;;1.71;72.51;98142.17;118847;1147;104898;-70
2020/12/28 04:36:48;;;;;;;12.80;7.50;;;;;;;1.72;72.22;98151.72;118355;1148;104564;-68
2020/12/28 04:39:16;;;;;;;15.05;7.80;;;;;;;1.72;72.13;98152.55;118841;1148;104556;-69
2020/12/28 04:41:45;;;;;;;13.53;7.30;;;;;;;1.73;70.68;98150.73;118811;1147;104675;-69
2020/12/28 04:44:14;;;;;;;11.90;6.90;;;;;;;1.75;71.38;98143.52;118781;1148;104613;-68
2020/12/28 04:46:44;;;;;;;11.93;7.10;;;;;;;1.75;72.19;98152.26;118670;1148;104529;-70
2020/12/28 04:49:13;;;;;;;12.33;7.53;;;;;;;1.75;71.23;98146.15;118576;1148;104476;-68
2020/12/28 04:51:41;;;;;;;15.15;7.75;;;;;;;1.74;71.11;98150.59;118926;1148;104960;-71
2020/12/28 04:54:09;;;;;;;14.07;8.03;;;;;;;1.74;70.49;98165.55;118870;1147;104560;-68
2020/12/28 04:56:38;;;;;;;12.73;7.57;;;;;;;1.77;70.60;98165.23;118877;1147;104556;-69
2020/12/28 04:59:06;;;;;;;11.33;6.47;;;;;;;1.80;71.87;98159.69;118869;1148;104489;-69
2020/12/28 05:01:34;;;;;;;14.83;7.50;;;;;;;1.82;71.14;98155.10;118868;1148;104617;-69
2020/12/28 05:04:03;;;;;;;14.73;8.47;;;;;;;1.82;70.68;98168.25;118819;1148;104583;-68
2020/12/28 05:06:31;;;;;;;19.40;10.53;;;;;;;1.81;71.98;98161.36;118420;1148;104575;-69
2020/12/28 05:09:09;;;;;;;19.03;9.60;;;;;;;1.84;70.72;98168.92;118869;1148;104556;-68
2020/12/28 05:11:40;;;;;;;15.85;9.20;;;;;;;1.85;72.51;98165.34;118408;1148;104612;-68
2020/12/28 05:14:16;;;;;;;16.63;9.67;;;;;;;1.86;71.15;98145.94;118351;1148;104469;-67
2020/12/28 05:16:44;;;;;;;20.45;10.45;;;;;;;1.87;71.71;98149.41;118052;1148;104556;-69
2020/12/28 05:19:12;;;;;;;18.60;10.75;;;;;;;1.86;71.00;98142.48;118873;1147;104662;-68
2020/12/28 05:21:42;;;;;;;21.27;11.07;;;;;;;1.85;72.27;98139.04;118434;1148;105084;-70
2020/12/28 05:24:14;;;;;;;17.60;10.40;;;;;;;1.83;70.77;98142.77;118394;1148;104540;-69
2020/12/28 05:26:44;;;;;;;15.50;8.40;;;;;;;1.80;71.01;98133.39;118387;1147;104460;-69
2020/12/28 05:29:15;;;;;;;16.17;8.90;;;;;;;1.80;71.65;98114.98;118852;1147;104485;-69
2020/12/28 05:31:44;;;;;;;14.87;8.30;;;;;;;1.78;71.67;98108.23;118468;1148;104460;-68
2020/12/28 05:34:17;;;;;;;15.33;8.27;;;;;;;1.76;71.35;98100.49;118403;1148;104596;-67
2020/12/28 05:36:48;;;;;;;17.33;8.73;;;;;;;1.74;72.06;98098.00;118312;1148;104556;-68
2020/12/28 05:39:19;;;;;;;15.60;8.65;;;;;;;1.71;71.50;98098.32;118430;1147;104553;-68
2020/12/28 05:41:55;;;;;;;15.03;8.60;;;;;;;1.70;71.43;98101.91;118430;1148;104599;-69
2020/12/28 05:44:26;;;;;;;13.90;8.33;;;;;;;1.70;72.25;98098.47;118424;1148;104487;-67
2020/12/28 05:47:06;;;;;;;41.08;24.10;;;;;;;1.72;71.26;98102.59;118372;1148;104556;-68
2020/12/28 05:49:39;;;;;;;274.97;195.77;;;;;;;1.71;72.96;98100.95;118735;1147;104467;-68
2020/12/28 05:52:11;;;;;;;136.93;78.67;;;;;;;1.71;71.82;98097.48;118762;1147;104720;-67
2020/12/28 05:54:39;;;;;;;230.03;110.28;;;;;;;1.70;72.76;98096.66;118768;1147;104479;-68
2020/12/28 05:57:09;;;;;;;578.07;349.67;;;;;;;1.71;72.62;98084.33;118333;1148;104498;-69
2020/12/28 05:59:38;;;;;;;347.87;166.30;;;;;;;1.70;71.42;98091.40;118008;1147;104929;-68
2020/12/28 06:02:08;;;;;;;411.33;229.37;;;;;;;1.70;72.58;98088.77;118706;1147;104602;-69
2020/12/28 06:04:39;;;;;;;323.70;153.93;;;;;;;1.69;71.42;98078.40;118623;1147;104638;-70
2020/12/28 06:07:07;;;;;;;246.27;116.60;;;;;;;1.68;72.91;98080.20;117983;1148;104479;-68
2020/12/28 06:09:35;;;;;;;277.70;145.10;;;;;;;1.67;72.58;98080.35;118163;1148;104476;-66
2020/12/28 06:12:04;;;;;;;367.47;213.53;;;;;;;1.67;71.85;98077.72;118187;1148;104555;-68
2020/12/28 06:14:37;;;;;;;346.35;191.40;;;;;;;1.66;72.68;98079.53;118782;1147;104687;-67
2020/12/28 06:17:06;;;;;;;304.53;154.37;;;;;;;1.64;73.44;98067.53;118396;1148;104499;-67
2020/12/28 06:19:35;;;;;;;142.13;72.50;;;;;;;1.62;73.03;98069.45;118875;1147;104482;-67
2020/12/28 06:22:17;;;;;;;92.17;46.37;;;;;;;1.62;73.45;98079.97;118864;1147;104679;-67
2020/12/28 06:24:56;;;;;;;94.97;54.30;;;;;;;1.63;72.21;98079.00;118311;1148;104463;-68
2020/12/28 06:27:31;;;;;;;97.20;51.65;;;;;;;1.63;73.26;98071.12;118834;1147;104555;-68
2020/12/28 06:30:15;;;;;;;104.03;51.37;;;;;;;1.62;73.47;98077.34;118505;1147;104551;-67
2020/12/28 06:32:45;;;;;;;139.23;70.63;;;;;;;1.63;73.11;98082.45;118369;1148;104639;-68
2020/12/28 06:35:14;;;;;;;156.20;81.35;;;;;;;1.63;72.20;98074.56;118681;1147;104457;-69
2020/12/28 06:37:44;;;;;;;211.47;122.77;;;;;;;1.63;72.23;98069.30;118109;1148;104476;-68
2020/12/28 06:40:13;;;;;;;106.53;52.93;;;;;;;1.64;73.49;98075.41;117997;1148;104613;-68
2020/12/28 06:42:43;;;;;;;72.77;35.40;;;;;;;1.63;73.51;98092.97;118364;1148;104650;-68
2020/12/28 06:45:16;;;;;;;83.23;46.23;;;;;;;1.63;73.71;98086.89;118564;1148;104564;-68
2020/12/28 06:47:45;;;;;;;75.65;38.70;;;;;;;1.63;73.65;98071.12;118488;1147;104562;-69
2020/12/28 06:50:13;;;;;;;91.37;58.50;;;;;;;1.63;72.89;98076.38;118342;1145;104607;-70
2020/12/28 06:52:41;;;;;;;97.67;60.77;;;;;;;1.64;73.74;98070.16;118254;1147;104572;-70
2020/12/28 06:55:12;;;;;;;94.53;46.47;;;;;;;1.64;73.28;98059.64;118404;1148;104521;-69
2020/12/28 06:57:41;;;;;;;154.00;82.67;;;;;;;1.65;73.84;98063.91;118636;1147;104498;-69
2020/12/28 07:00:18;;;;;;;79.93;38.43;;;;;;;1.65;73.27;98056.02;118587;1147;104626;-69
2020/12/28 07:02:51;;;;;;;88.75;45.55;;;;;;;1.67;72.98;98059.32;118874;1147;104642;-70
2020/12/28 07:05:27;;;;;;;113.37;62.33;;;;;;;1.68;73.23;98077.58;118572;1148;104493;-71
2020/12/28 07:07:55;;;;;;;104.10;57.63;;;;;;;1.69;73.10;98068.70;118799;1147;104994;-70
2020/12/28 07:10:26;;;;;;;74.83;43.30;;;;;;;1.70;73.34;98061.66;118490;1147;104546;-68
2020/12/28 07:13:01;;;;;;;83.57;48.83;;;;;;;1.71;73.30;98065.92;118425;1148;104563;-69
2020/12/28 07:15:29;;;;;;;89.27;50.33;;;;;;;1.72;73.93;98062.34;118634;1147;104600;-70
2020/12/28 07:18:05;;;;;;;75.73;44.77;;;;;;;1.76;73.98;98074.20;118836;1147;104560;-71
2020/12/28 07:20:34;;;;;;;59.30;32.73;;;;;;;1.77;73.93;98070.58;118888;1147;104458;-70
2020/12/28 07:23:02;;;;;;;27.13;16.53;;;;;;;1.82;74.05;98062.25;118909;1147;104479;-70
2020/12/28 07:25:31;;;;;;;62.33;37.10;;;;;;;1.85;74.47;98046.16;118844;1147;104668;-72
2020/12/28 07:27:59;;;;;;;36.57;21.27;;;;;;;1.91;73.70;98061.34;118822;1147;104476;-72
2020/12/28 07:30:27;;;;;;;65.03;43.23;;;;;;;1.94;74.15;98064.50;118532;1147;104510;-70
2020/12/28 07:32:59;;;;;;;59.50;34.67;;;;;;;1.98;74.00;98066.81;118653;1147;104636;-72
2020/12/28 07:35:28;;;;;;;31.97;18.10;;;;;;;2.03;74.81;98057.48;118883;1147;105055;-70
2020/12/28 07:37:58;;;;;;;27.37;16.10;;;;;;;2.07;73.20;98061.46;118874;1148;104560;-68
2020/12/28 07:40:26;;;;;;;26.30;17.30;;;;;;;2.14;74.03;98043.27;118822;1147;104479;-69
2020/12/28 07:42:55;;;;;;;71.07;41.77;;;;;;;2.21;73.40;98036.39;118558;1147;104617;-71
2020/12/28 07:45:24;;;;;;;125.70;66.77;;;;;;;2.27;74.15;98051.59;118735;1148;104559;-69
2020/12/28 07:47:56;;;;;;;145.80;84.85;;;;;;;2.33;74.57;98045.70;118493;1148;104951;-67
2020/12/28 07:50:26;;;;;;;163.87;92.70;;;;;;;2.41;74.24;98036.21;118832;1148;104917;-67
2020/12/28 07:53:00;;;;;;;159.17;86.23;;;;;;;2.45;73.63;98034.91;118944;1148;104611;-68
2020/12/28 07:55:43;;;;;;;108.33;58.17;;;;;;;2.47;74.87;98030.31;118730;1147;104605;-66
2020/12/28 07:58:21;;;;;;;56.40;37.67;;;;;;;2.50;72.98;98035.25;118832;1147;104531;-68
2020/12/28 08:00:53;;;;;;;72.57;44.00;;;;;;;2.55;74.26;98035.61;118825;1147;104495;-67
2020/12/28 08:03:28;;;;;;;;;;;;;;;2.59;73.95;98039.58;118842;1147;104460;-68
2020/12/28 08:06:01;;;;;;;96.65;60.30;;;;;;;2.64;74.05;98036.50;118853;1147;104658;-67
2020/12/28 08:08:29;;;;;;;166.70;110.03;;;;;;;2.67;73.84;98042.25;118951;1147;105662;-68
2020/12/28 08:10:59;;;;;;;129.70;72.90;;;;;;;2.70;74.72;98035.86;118843;1148;104538;-67
2020/12/28 08:13:28;;;;;;;167.07;94.83;;;;;;;2.73;73.35;98036.38;118931;1148;104803;-69
2020/12/28 08:16:07;;;;;;;136.43;84.13;;;;;;;2.77;73.50;98049.20;118852;1147;104468;-70
2020/12/28 08:18:45;;;;;;;87.53;48.80;;;;;;;2.79;73.88;98031.44;118704;1147;104476;-71
2020/12/28 08:21:13;;;;;;;153.10;98.67;;;;;;;2.84;73.18;98011.55;118386;1148;104473;-69
2020/12/28 08:23:49;;;;;;;145.53;85.60;;;;;;;2.86;73.36;98009.58;118298;1148;104498;-69
2020/12/28 08:26:19;;;;;;;49.60;30.07;;;;;;;2.91;73.58;98011.75;117973;1148;104482;-69
2020/12/28 08:28:52;;;;;;;208.97;154.03;;;;;;;2.95;73.46;98013.08;118625;1148;104599;-69
2020/12/28 08:31:27;;;;;;;92.07;51.93;;;;;;;2.98;72.87;98018.00;118748;1148;104528;-69
2020/12/28 08:34:05;;;;;;;79.90;49.60;;;;;;;3.03;72.89;98007.00;118612;1147;104502;-70
2020/12/28 08:36:35;;;;;;;98.20;63.53;;;;;;;3.07;73.58;98006.52;118605;1147;104537;-71
2020/12/28 08:39:13;;;;;;;101.00;60.70;;;;;;;3.08;74.47;98000.27;118794;1147;104903;-69
2020/12/28 08:41:50;;;;;;;66.63;40.47;;;;;;;3.13;73.64;97990.05;118602;1147;104521;-69
2020/12/28 08:44:29;;;;;;;78.23;47.00;;;;;;;3.17;73.44;97989.74;118634;1147;104560;-69
2020/12/28 08:46:58;;;;;;;75.60;45.57;;;;;;;3.21;74.17;97972.62;118749;1147;104556;-70
2020/12/28 08:49:28;;;;;;;77.07;48.47;;;;;;;3.26;73.79;97965.05;118863;1147;104553;-69
2020/12/28 08:52:07;;;;;;;56.10;34.80;;;;;;;3.28;73.53;97963.08;118828;1147;104553;-69
2020/12/28 08:54:35;;;;;;;63.87;39.87;;;;;;;3.33;74.04;97961.61;118876;1147;104671;-69
2020/12/28 08:57:04;;;;;;;70.13;42.63;;;;;;;3.38;73.36;97949.75;118779;1147;104560;-69
2020/12/28 08:59:32;;;;;;;202.13;123.90;;;;;;;3.44;74.17;97963.08;118640;1147;104565;-67
2020/12/28 09:02:00;;;;;;;132.23;69.80;;;;;;;3.50;74.03;97959.81;118640;1147;104499;-67
2020/12/28 09:04:29;;;;;;;141.73;86.53;;;;;;;3.53;74.15;97959.46;118473;1147;104646;-69
2020/12/28 09:06:59;;;;;;;129.45;89.70;;;;;;;3.61;74.08;97960.45;118802;1147;104661;-69
2020/12/28 09:09:28;;;;;;;112.80;72.23;;;;;;;3.66;73.84;97960.80;118888;1147;104454;-70
2020/12/28 09:11:56;;;;;;;105.80;64.70;;;;;;;3.73;73.22;97956.48;118892;1147;104466;-71
2020/12/28 09:14:24;;;;;;;106.67;67.23;;;;;;;3.78;73.46;97940.99;118866;1147;104542;-72
2020/12/28 09:16:52;;;;;;;105.27;63.70;;;;;;;3.81;72.78;97960.93;118982;1147;104546;-72
2020/12/28 09:19:20;;;;;;;200.83;121.77;;;;;;;3.84;73.40;97956.15;118970;1148;104546;-71
2020/12/28 09:21:49;;;;;;;107.15;61.25;;;;;;;3.88;73.16;97944.27;118403;1147;104556;-70
2020/12/28 09:24:17;;;;;;;79.03;51.40;;;;;;;3.90;73.14;97947.56;118783;1148;104622;-71
2020/12/28 09:26:45;;;;;;;664.40;538.15;;;;;;;3.92;72.82;97931.57;118887;1147;104498;-73
2020/12/28 09:29:13;;;;;;;496.60;327.87;;;;;;;3.93;73.53;97939.33;119466;1147;104449;-76
2020/12/28 09:31:41;;;;;;;232.93;117.57;;;;;;;3.98;72.81;97937.99;119158;1147;104476;-76
2020/12/28 09:34:09;;;;;;;294.03;173.50;;;;;;;4.04;73.02;97953.14;118658;1147;104591;-75
2020/12/28 09:36:38;;;;;;;132.90;69.30;;;;;;;4.09;72.73;97919.17;118570;1148;104495;-71
2020/12/28 09:39:06;;;;;;;223.10;132.23;;;;;;;4.11;73.02;97914.54;118807;1147;104499;-71
2020/12/28 09:41:34;;;;;;;95.03;47.67;;;;;;;4.12;73.37;97917.02;118775;1147;104556;-74
2020/12/28 09:44:02;;;;;;;262.03;139.20;;;;;;;4.14;72.77;97898.37;119151;1147;104545;-73
2020/12/28 09:46:30;;;;;;;304.60;183.15;;;;;;;4.17;73.38;97882.19;118734;1147;104903;-72
2020/12/28 09:48:58;;;;;;;197.80;104.47;;;;;;;4.22;73.05;97897.53;118728;1147;104543;-69
2020/12/28 09:51:26;;;;;;;135.67;71.57;;;;;;;4.26;73.02;97904.11;118773;1147;104550;-69
2020/12/28 09:53:54;;;;;;;107.10;52.93;;;;;;;4.32;72.79;97904.23;118910;1147;104624;-70
2020/12/28 09:56:23;;;;;;;131.23;80.00;;;;;;;4.37;72.92;97894.97;119110;1147;104563;-70
2020/12/28 09:58:51;;;;;;;134.40;77.77;;;;;;;4.45;72.83;97879.11;118425;1147;104660;-70
2020/12/28 10:01:19;;;;;;;160.90;95.10;;;;;;;4.49;72.75;97883.05;118785;1148;104471;-71
2020/12/28 10:03:47;;;;;;;92.20;48.90;;;;;;;4.53;72.71;97873.78;118900;1147;104642;-71
2020/12/28 10:06:34;;;;;;;76.95;42.25;;;;;;;4.52;72.59;97870.33;118531;1145;104541;-73
2020/12/28 10:09:03;;;;;;;85.70;49.93;;;;;;;4.50;72.72;97882.05;118622;1147;104549;-68
2020/12/28 10:11:31;;;;;;;96.15;58.90;;;;;;;4.48;72.71;97874.31;118856;1147;104479;-69
2020/12/28 10:14:00;;;;;;;47.33;28.03;;;;;;;4.51;72.80;97854.66;118573;1147;105106;-70
2020/12/28 10:16:30;;;;;;;73.63;34.07;;;;;;;4.56;72.60;97864.68;118869;1147;104543;-69
2020/12/28 10:18:59;;;;;;;80.67;51.53;;;;;;;4.59;72.71;97878.37;118749;1147;104477;-70
2020/12/28 10:21:28;;;;;;;94.93;60.70;;;;;;;4.62;72.44;97870.11;118341;1147;104549;-73
2020/12/28 10:23:56;;;;;;;80.60;54.80;;;;;;;4.65;72.72;97856.54;118954;1147;104463;-72
2020/12/28 10:26:27;;;;;;;103.35;76.20;;;;;;;4.67;72.77;97851.09;118996;1147;104555;-70
2020/12/28 10:28:57;;;;;;;64.23;41.97;;;;;;;4.70;72.44;97846.28;118691;1147;104503;-79
2020/12/28 10:31:26;;;;;;;72.90;46.75;;;;;;;4.75;72.53;97847.57;118966;1148;104559;-71
2020/12/28 10:33:54;;;;;;;55.57;36.43;;;;;;;4.79;72.74;97825.08;118854;1147;104618;-70
2020/12/28 10:36:25;;;;;;;51.65;33.80;;;;;;;4.87;72.71;97819.77;119024;1147;104502;-73
2020/12/28 10:38:54;;;;;;;34.23;22.73;;;;;;;4.92;72.92;97814.75;118482;1147;104476;-72
2020/12/28 10:41:26;;;;;;;44.33;30.70;;;;;;;4.99;72.83;97813.05;118760;1147;104627;-69
2020/12/28 10:43:55;;;;;;;39.80;26.70;;;;;;;5.03;72.37;97803.77;118796;1147;104551;-70
2020/12/28 10:46:24;;;;;;;73.00;52.03;;;;;;;5.06;72.04;97811.34;119078;1147;104538;-72
2020/12/28 10:48:52;;;;;;;44.60;28.10;;;;;;;5.12;72.64;97801.88;119032;1147;104566;-71
2020/12/28 10:51:20;;;;;;;34.37;23.63;;;;;;;5.17;72.05;97796.05;118725;1147;104492;-71
2020/12/28 10:53:49;;;;;;;154.47;98.00;;;;;;;5.21;71.96;97800.79;118624;1147;104590;-70
2020/12/28 10:56:23;;;;;;;131.17;67.50;;;;;;;5.23;72.16;97803.26;118753;1147;104616;-71
2020/12/28 10:58:52;;;;;;;157.67;85.27;;;;;;;5.28;72.24;97801.72;118758;1148;104569;-71
2020/12/28 11:01:23;;;;;;;107.33;57.50;;;;;;;5.33;72.37;97777.38;118890;1147;104469;-70
2020/12/28 11:03:52;;;;;;;101.85;59.30;;;;;;;5.37;72.08;97776.03;118887;1147;104456;-71
2020/12/28 11:06:21;;;;;;;600.53;370.03;;;;;;;5.43;71.91;97767.37;118878;1148;104455;-69
2020/12/28 11:08:50;;;;;;;788.37;487.20;;;;;;;5.48;72.18;97772.92;118876;1147;104461;-69
2020/12/28 11:11:18;;;;;;;483.20;288.37;;;;;;;5.52;71.86;97762.80;118844;1147;104470;-68
2020/12/28 11:13:47;;;;;;;275.90;147.77;;;;;;;5.56;72.40;97755.33;118845;1147;104570;-68
2020/12/28 11:16:15;;;;;;;352.97;221.83;;;;;;;5.53;71.41;97776.87;118728;1148;104806;-68
2020/12/28 11:18:43;;;;;;;264.73;175.33;;;;;;;5.47;71.65;97751.97;118842;1148;104448;-68
2020/12/28 11:21:12;;;;;;;157.93;97.47;;;;;;;5.43;71.61;97740.92;118864;1147;104448;-68
2020/12/28 11:23:59;;;;;;;104.20;72.60;;;;;;;5.45;71.42;97754.78;118589;1147;104526;-69
2020/12/28 11:26:28;;;;;;;113.73;76.27;;;;;;;5.50;71.92;97752.42;118690;1147;104550;-69
2020/12/28 11:28:56;;;;;;;71.50;48.40;;;;;;;5.54;71.25;97731.70;118458;1147;104871;-69
2020/12/28 11:31:25;;;;;;;82.35;59.95;;;;;;;5.59;71.49;97720.58;118735;1147;104485;-69
2020/12/28 11:33:54;;;;;;;51.30;36.20;;;;;;;5.60;71.33;97714.27;118891;1147;104553;-69